Vivien A — TCYC4 — position and weather

sailwx.info

Track history (hours):
 
Tides and Currents Weather Stations Pressure Air Temp Water Temp Dewpoint Dewpoint Depression Visibility Wind Speed Wind Dir Waves Ship Positions

Vivien A

Last reported at 2015-May-26 07:28 UTC. Time now 2015-May-26 09:49 UTC.
Position N 28°33' W 013°29'.

Length 210 m; draft 10.3 m.

Type: Ship (hazmat cat A). MMSI: 271040635.

Date/timePositionNaut miles runAvg speedWind from/ knotsBaromVisibWave heightAir tempDewpointWater temp
2015-May-26 07:28N 28°33' W 013°29'59811.7
2015-May-24 04:15N 35°58' W 005°36'811.5
2015-May-24 03:34N 35°60' W 005°26'9 8.9
2015-May-24 02:33N 36°09' W 005°25'1 0.4
2015-May-24 00:31N 36°09' W 005°26'0 0.0
2015-May-23 22:25N 36°09' W 005°26'0 0.0
2015-May-23 21:25N 36°09' W 005°26'0 0.0
2015-May-23 19:22N 36°09' W 005°26'0 0.0
2015-May-23 17:31N 36°09' W 005°26'0 0.0
2015-May-23 16:28N 36°09' W 005°26'0 0.0
2015-May-23 13:25N 36°09' W 005°26'0 0.0
2015-May-23 12:28N 36°09' W 005°26'0 0.0
2015-May-23 11:04N 36°09' W 005°26'0 0.0
2015-May-23 10:31N 36°09' W 005°26'0 0.0
2015-May-23 07:16N 36°09' W 005°26'0 0.0
2015-May-23 06:22N 36°09' W 005°26'0 0.0
2015-May-23 04:31N 36°09' W 005°26'0 0.0
2015-May-23 03:28N 36°09' W 005°26'0 0.0
2015-May-23 02:07N 36°09' W 005°26'0 0.0
2015-May-23 00:16N 36°09' W 005°26'0 0.0
2015-May-22 23:28N 36°09' W 005°26'0 0.0
2015-May-22 22:31N 36°09' W 005°26'0 0.0
2015-May-22 21:31N 36°09' W 005°26'0 0.4
2015-May-22 20:33N 36°09' W 005°26'8 8.1
2015-May-22 19:33N 36°01' W 005°24'4 0.2
2015-May-21 20:29N 35°59' W 005°28'6 6.2
2015-May-21 19:33N 35°60' W 005°21'  
2015-May-19 01:17N 21°34' W 017°54'3016.5
2015-May-18 23:29N 21°04' W 017°59'1516.7
2015-May-18 22:33N 20°49' W 018°00'2217.0
2015-May-18 21:16N 20°27' W 017°60'1216.3
2015-May-18 20:34N 20°16' W 018°00'3316.0
2015-May-18 18:31N 19°43' W 017°60'1715.8
2015-May-18 17:27N 19°26' W 018°00'3116.1
2015-May-18 15:31N 18°55' W 018°00'17216.8
2015-May-18 05:16N 16°02' W 017°59'1316.9
2015-May-18 04:31N 15°50' W 017°59'  
Track history (hours):
 
Tides and Currents Weather Stations Pressure Air Temp Water Temp Dewpoint Dewpoint Depression Visibility Wind Speed Wind Dir Waves Ship Positions

Vivien A

Last reported at 2015-May-26 07:28 UTC. Time now 2015-May-26 09:49 UTC.
Position N 28°33' W 013°29'.

Length 210 m; draft 10.3 m.

Type: Ship (hazmat cat A). MMSI: 271040635.

Date/timePositionNaut miles runAvg speedWind from/ knotsBaromVisibWave heightAir tempDewpointWater temp
2015-May-26 07:28N 28°33' W 013°29'59811.7
2015-May-24 04:15N 35°58' W 005°36'811.5
2015-May-24 03:34N 35°60' W 005°26'9 8.9
2015-May-24 02:33N 36°09' W 005°25'1 0.4
2015-May-24 00:31N 36°09' W 005°26'0 0.0
2015-May-23 22:25N 36°09' W 005°26'0 0.0
2015-May-23 21:25N 36°09' W 005°26'0 0.0
2015-May-23 19:22N 36°09' W 005°26'0 0.0
2015-May-23 17:31N 36°09' W 005°26'0 0.0
2015-May-23 16:28N 36°09' W 005°26'0 0.0
2015-May-23 13:25N 36°09' W 005°26'0 0.0
2015-May-23 12:28N 36°09' W 005°26'0 0.0
2015-May-23 11:04N 36°09' W 005°26'0 0.0
2015-May-23 10:31N 36°09' W 005°26'0 0.0
2015-May-23 07:16N 36°09' W 005°26'0 0.0
2015-May-23 06:22N 36°09' W 005°26'0 0.0
2015-May-23 04:31N 36°09' W 005°26'0 0.0
2015-May-23 03:28N 36°09' W 005°26'0 0.0
2015-May-23 02:07N 36°09' W 005°26'0 0.0
2015-May-23 00:16N 36°09' W 005°26'0 0.0
2015-May-22 23:28N 36°09' W 005°26'0 0.0
2015-May-22 22:31N 36°09' W 005°26'0 0.0
2015-May-22 21:31N 36°09' W 005°26'0 0.4
2015-May-22 20:33N 36°09' W 005°26'8 8.1
2015-May-22 19:33N 36°01' W 005°24'4 0.2
2015-May-21 20:29N 35°59' W 005°28'6 6.2
2015-May-21 19:33N 35°60' W 005°21'  
2015-May-19 01:17N 21°34' W 017°54'3016.5
2015-May-18 23:29N 21°04' W 017°59'1516.7
2015-May-18 22:33N 20°49' W 018°00'2217.0
2015-May-18 21:16N 20°27' W 017°60'1216.3
2015-May-18 20:34N 20°16' W 018°00'3316.0
2015-May-18 18:31N 19°43' W 017°60'1715.8
2015-May-18 17:27N 19°26' W 018°00'3116.1
2015-May-18 15:31N 18°55' W 018°00'17216.8
2015-May-18 05:16N 16°02' W 017°59'1316.9
2015-May-18 04:31N 15°50' W 017°59'  

Dump ship's entire track history